FDX317 KMEM-KDFW
Flight info
| Callsign | FDX317 |
|---|---|
| Flight time | 1h 8m |
| Altitude | 36000 |
| Route | CHLDR5 ANSWA FEWWW SEEVR4 |
| Aircraft | B77L/H-SDE1E2E3FGHIJ2J3J4J5M1RWXY/LB1D1 |
Departure
| Time | 2026-05-08 06:04 |
|---|---|
| Airport | Memphis International Airport (KMEM) |
Arrival
| Time | 2026-05-08 07:12 |
|---|---|
| Airport | Dallas Fort Worth International Airport (KDFW) |
| Time | Latitude | Longitude | Altitude | Speed | Heading |
|---|---|---|---|---|---|
| 2026-05-08 05:47 | 35.05999 | -89.97009 | 335 ft | 0 kts | 0° |
| 2026-05-08 05:56 | 35.05989 | -89.97009 | 330 ft | 3 kts | 4° |
| 2026-05-08 05:56 | 35.05969 | -89.97012 | 333 ft | 3 kts | 14° |
| 2026-05-08 05:56 | 35.05951 | -89.97020 | 332 ft | 3 kts | 30° |
| 2026-05-08 05:57 | 35.05936 | -89.97034 | 332 ft | 3 kts | 58° |
| 2026-05-08 05:57 | 35.05930 | -89.97051 | 331 ft | 1 kts | 91° |
| 2026-05-08 05:57 | 35.05930 | -89.97053 | 331 ft | 0 kts | 92° |
| 2026-05-08 06:00 | 35.05929 | -89.97026 | 333 ft | 7 kts | 92° |
| 2026-05-08 06:00 | 35.05927 | -89.96931 | 335 ft | 13 kts | 92° |
| 2026-05-08 06:00 | 35.05923 | -89.96820 | 330 ft | 14 kts | 92° |
| 2026-05-08 06:01 | 35.05919 | -89.96694 | 331 ft | 15 kts | 91° |
| 2026-05-08 06:01 | 35.05916 | -89.96567 | 335 ft | 15 kts | 92° |
| 2026-05-08 06:01 | 35.05911 | -89.96417 | 332 ft | 21 kts | 92° |
| 2026-05-08 06:01 | 35.05907 | -89.96242 | 332 ft | 21 kts | 92° |
| 2026-05-08 06:02 | 35.05902 | -89.96066 | 335 ft | 21 kts | 92° |
| 2026-05-08 06:02 | 35.05897 | -89.95893 | 332 ft | 21 kts | 92° |
| 2026-05-08 06:02 | 35.05892 | -89.95717 | 335 ft | 21 kts | 92° |
| 2026-05-08 06:02 | 35.05868 | -89.95600 | 330 ft | 13 kts | 143° |
| 2026-05-08 06:03 | 35.05789 | -89.95621 | 332 ft | 13 kts | 237° |
| 2026-05-08 06:03 | 35.05786 | -89.95846 | 337 ft | 52 kts | 272° |
| 2026-05-08 06:03 | 35.05808 | -89.96621 | 330 ft | 128 kts | 272° |
| 2026-05-08 06:03 | 35.05846 | -89.97960 | 398 ft | 178 kts | 271° |
| 2026-05-08 06:04 | 35.05885 | -89.99493 | 1020 ft | 181 kts | 270° |
| 2026-05-08 06:04 | 35.05905 | -90.01044 | 1713 ft | 187 kts | 270° |
| 2026-05-08 06:04 | 35.05920 | -90.02647 | 2380 ft | 194 kts | 271° |
| 2026-05-08 06:04 | 35.05932 | -90.04388 | 2697 ft | 220 kts | 267° |
| 2026-05-08 06:05 | 35.05644 | -90.06357 | 2958 ft | 251 kts | 256° |
| 2026-05-08 06:05 | 35.05155 | -90.08454 | 3726 ft | 260 kts | 254° |
| 2026-05-08 06:05 | 35.04638 | -90.10591 | 4710 ft | 263 kts | 255° |
| 2026-05-08 06:05 | 35.04122 | -90.12742 | 5691 ft | 265 kts | 256° |
| 2026-05-08 06:06 | 35.03616 | -90.14893 | 6596 ft | 269 kts | 256° |
| 2026-05-08 06:06 | 35.03101 | -90.17104 | 7496 ft | 270 kts | 256° |
| 2026-05-08 06:06 | 35.02595 | -90.19307 | 8525 ft | 268 kts | 257° |
| 2026-05-08 06:06 | 35.02097 | -90.21493 | 9554 ft | 267 kts | 257° |
| 2026-05-08 06:07 | 35.01606 | -90.23653 | 10433 ft | 270 kts | 257° |
| 2026-05-08 06:07 | 35.01091 | -90.25940 | 10853 ft | 292 kts | 257° |
| 2026-05-08 06:07 | 35.00526 | -90.28455 | 11073 ft | 321 kts | 257° |
| 2026-05-08 06:07 | 34.99911 | -90.31197 | 11401 ft | 345 kts | 256° |
| 2026-05-08 06:08 | 34.99273 | -90.34027 | 12200 ft | 354 kts | 256° |
| 2026-05-08 06:08 | 34.98617 | -90.36934 | 13270 ft | 356 kts | 256° |
| 2026-05-08 06:08 | 34.97954 | -90.39864 | 14363 ft | 357 kts | 256° |
| 2026-05-08 06:08 | 34.97292 | -90.42793 | 15348 ft | 360 kts | 256° |
| 2026-05-08 06:09 | 34.96632 | -90.45714 | 16285 ft | 363 kts | 257° |
| 2026-05-08 06:09 | 34.95954 | -90.48711 | 17214 ft | 367 kts | 257° |
| 2026-05-08 06:09 | 34.95270 | -90.51732 | 18139 ft | 370 kts | 257° |
| 2026-05-08 06:09 | 34.94580 | -90.54774 | 18957 ft | 374 kts | 257° |
| 2026-05-08 06:10 | 34.93892 | -90.57805 | 19787 ft | 376 kts | 257° |
| 2026-05-08 06:10 | 34.93192 | -90.60884 | 20636 ft | 377 kts | 257° |
| 2026-05-08 06:10 | 34.92491 | -90.63965 | 21481 ft | 378 kts | 257° |
| 2026-05-08 06:10 | 34.91784 | -90.67072 | 22258 ft | 381 kts | 256° |
| 2026-05-08 06:11 | 34.91071 | -90.70195 | 23034 ft | 383 kts | 256° |
| 2026-05-08 06:11 | 34.90382 | -90.73351 | 23780 ft | 385 kts | 258° |
| 2026-05-08 06:11 | 34.89882 | -90.76517 | 24426 ft | 386 kts | 261° |
| 2026-05-08 06:11 | 34.89407 | -90.79749 | 25108 ft | 387 kts | 261° |
| 2026-05-08 06:12 | 34.88919 | -90.82982 | 25811 ft | 387 kts | 261° |
| 2026-05-08 06:12 | 34.88426 | -90.86210 | 26536 ft | 387 kts | 261° |
| 2026-05-08 06:12 | 34.87931 | -90.89438 | 27248 ft | 387 kts | 261° |
| 2026-05-08 06:12 | 34.87441 | -90.92625 | 27924 ft | 388 kts | 261° |
| 2026-05-08 06:13 | 34.86944 | -90.95860 | 28563 ft | 389 kts | 261° |
| 2026-05-08 06:13 | 34.86445 | -90.99100 | 29181 ft | 390 kts | 261° |
| 2026-05-08 06:13 | 34.85945 | -91.02349 | 29759 ft | 391 kts | 261° |
| 2026-05-08 06:13 | 34.85442 | -91.05608 | 30305 ft | 391 kts | 261° |
| 2026-05-08 06:14 | 34.84939 | -91.08861 | 30890 ft | 389 kts | 260° |
| 2026-05-08 06:14 | 34.84439 | -91.12087 | 31451 ft | 386 kts | 260° |
| 2026-05-08 06:14 | 34.83946 | -91.15260 | 31955 ft | 385 kts | 259° |
| 2026-05-08 06:14 | 34.83447 | -91.18472 | 32373 ft | 386 kts | 259° |
| 2026-05-08 06:15 | 34.82946 | -91.21693 | 32799 ft | 387 kts | 259° |
| 2026-05-08 06:15 | 34.82445 | -91.24907 | 33225 ft | 387 kts | 259° |
| 2026-05-08 06:15 | 34.81942 | -91.28126 | 33635 ft | 386 kts | 258° |
| 2026-05-08 06:15 | 34.81438 | -91.31346 | 34052 ft | 386 kts | 258° |
| 2026-05-08 06:16 | 34.80940 | -91.34519 | 34401 ft | 386 kts | 258° |
| 2026-05-08 06:16 | 34.80438 | -91.37721 | 34759 ft | 385 kts | 258° |
| 2026-05-08 06:16 | 34.79934 | -91.40922 | 35137 ft | 383 kts | 258° |
| 2026-05-08 06:16 | 34.79432 | -91.44108 | 35493 ft | 382 kts | 258° |
| 2026-05-08 06:17 | 34.78428 | -91.50460 | 36000 ft | 385 kts | 259° |
| 2026-05-08 06:17 | 34.77418 | -91.56831 | 36079 ft | 384 kts | 258° |
| 2026-05-08 06:18 | 34.76411 | -91.63159 | 36084 ft | 379 kts | 258° |
| 2026-05-08 06:18 | 34.75407 | -91.69451 | 36089 ft | 378 kts | 258° |
| 2026-05-08 06:19 | 34.74406 | -91.75689 | 36087 ft | 378 kts | 258° |
| 2026-05-08 06:19 | 34.73066 | -91.81872 | 36087 ft | 378 kts | 254° |
| 2026-05-08 06:20 | 34.71540 | -91.88006 | 36043 ft | 379 kts | 254° |
| 2026-05-08 06:20 | 34.70021 | -91.94121 | 36081 ft | 381 kts | 254° |
| 2026-05-08 06:21 | 34.68485 | -92.00305 | 36083 ft | 383 kts | 254° |
| 2026-05-08 06:21 | 34.66938 | -92.06523 | 36083 ft | 384 kts | 254° |
| 2026-05-08 06:22 | 34.65385 | -92.12759 | 36083 ft | 385 kts | 254° |
| 2026-05-08 06:22 | 34.63837 | -92.18956 | 36083 ft | 385 kts | 254° |
| 2026-05-08 06:23 | 34.62276 | -92.25192 | 36083 ft | 385 kts | 254° |
| 2026-05-08 06:23 | 34.60725 | -92.31372 | 36072 ft | 384 kts | 253° |
| 2026-05-08 06:24 | 34.59162 | -92.37585 | 36082 ft | 384 kts | 253° |
| 2026-05-08 06:24 | 34.57596 | -92.43796 | 36082 ft | 384 kts | 253° |
| 2026-05-08 06:25 | 34.56039 | -92.49957 | 36084 ft | 384 kts | 253° |
| 2026-05-08 06:25 | 34.54469 | -92.56154 | 36083 ft | 384 kts | 253° |
| 2026-05-08 06:26 | 34.52896 | -92.62350 | 36081 ft | 383 kts | 253° |
| 2026-05-08 06:26 | 34.51331 | -92.68497 | 36087 ft | 383 kts | 253° |
| 2026-05-08 06:27 | 34.49753 | -92.74684 | 36080 ft | 383 kts | 253° |
| 2026-05-08 06:27 | 34.48173 | -92.80861 | 36077 ft | 383 kts | 253° |
| 2026-05-08 06:28 | 34.46590 | -92.87036 | 36090 ft | 383 kts | 253° |
| 2026-05-08 06:28 | 34.45015 | -92.93167 | 36072 ft | 383 kts | 253° |
| 2026-05-08 06:29 | 34.43424 | -92.99345 | 36046 ft | 383 kts | 253° |
| 2026-05-08 06:29 | 34.41833 | -93.05509 | 36068 ft | 384 kts | 253° |
| 2026-05-08 06:30 | 34.40242 | -93.11657 | 36065 ft | 385 kts | 252° |
| 2026-05-08 06:30 | 34.38637 | -93.17849 | 36071 ft | 385 kts | 252° |
| 2026-05-08 06:31 | 34.37024 | -93.24051 | 36067 ft | 386 kts | 252° |
| 2026-05-08 06:31 | 34.35417 | -93.30221 | 36062 ft | 386 kts | 252° |
| 2026-05-08 06:32 | 34.33793 | -93.36439 | 36053 ft | 386 kts | 252° |
| 2026-05-08 06:32 | 34.32178 | -93.42607 | 36054 ft | 386 kts | 252° |
| 2026-05-08 06:33 | 34.30551 | -93.48812 | 36048 ft | 386 kts | 252° |
| 2026-05-08 06:33 | 34.28923 | -93.55004 | 36047 ft | 385 kts | 252° |
| 2026-05-08 06:34 | 34.27306 | -93.61140 | 36049 ft | 385 kts | 252° |
| 2026-05-08 06:34 | 34.25674 | -93.67318 | 36053 ft | 385 kts | 252° |
| 2026-05-08 06:35 | 34.24050 | -93.73452 | 36058 ft | 385 kts | 252° |
| 2026-05-08 06:35 | 34.22414 | -93.79620 | 36043 ft | 385 kts | 252° |
| 2026-05-08 06:36 | 34.20776 | -93.85786 | 36050 ft | 384 kts | 252° |
| 2026-05-08 06:36 | 34.19131 | -93.91894 | 36050 ft | 384 kts | 251° |
| 2026-05-08 06:37 | 34.17284 | -93.97971 | 36053 ft | 385 kts | 250° |
| 2026-05-08 06:37 | 34.15402 | -94.03990 | 36051 ft | 385 kts | 250° |
| 2026-05-08 06:38 | 34.13522 | -94.10047 | 36057 ft | 385 kts | 250° |
| 2026-05-08 06:38 | 34.11651 | -94.16111 | 36061 ft | 386 kts | 250° |
| 2026-05-08 06:39 | 34.09789 | -94.22150 | 36060 ft | 386 kts | 250° |
| 2026-05-08 06:39 | 34.07906 | -94.28244 | 36066 ft | 387 kts | 250° |
| 2026-05-08 06:40 | 34.06032 | -94.34301 | 36067 ft | 387 kts | 250° |
| 2026-05-08 06:40 | 34.04142 | -94.40394 | 36063 ft | 387 kts | 250° |
| 2026-05-08 06:41 | 34.02264 | -94.46437 | 36064 ft | 387 kts | 250° |
| 2026-05-08 06:41 | 34.00370 | -94.52518 | 36063 ft | 387 kts | 250° |
| 2026-05-08 06:42 | 33.98487 | -94.58555 | 36061 ft | 387 kts | 250° |
| 2026-05-08 06:42 | 33.96589 | -94.64626 | 36058 ft | 386 kts | 250° |
| 2026-05-08 06:43 | 33.94692 | -94.70679 | 36047 ft | 386 kts | 250° |
| 2026-05-08 06:43 | 33.92803 | -94.76696 | 36048 ft | 385 kts | 250° |
| 2026-05-08 06:44 | 33.90903 | -94.82738 | 36049 ft | 385 kts | 250° |
| 2026-05-08 06:44 | 33.89020 | -94.88713 | 36050 ft | 380 kts | 250° |
| 2026-05-08 06:45 | 33.87147 | -94.94645 | 36054 ft | 379 kts | 250° |
| 2026-05-08 06:45 | 33.85259 | -95.00614 | 36057 ft | 382 kts | 249° |
| 2026-05-08 06:46 | 33.83370 | -95.06575 | 36048 ft | 384 kts | 249° |
| 2026-05-08 06:46 | 33.81458 | -95.12597 | 36055 ft | 385 kts | 249° |
| 2026-05-08 06:47 | 33.79587 | -95.18470 | 35865 ft | 370 kts | 249° |
| 2026-05-08 06:47 | 33.78667 | -95.21357 | 35270 ft | 368 kts | 249° |
| 2026-05-08 06:47 | 33.77747 | -95.24240 | 34534 ft | 369 kts | 249° |
| 2026-05-08 06:48 | 33.76836 | -95.27096 | 33672 ft | 372 kts | 249° |
| 2026-05-08 06:48 | 33.75904 | -95.30012 | 32904 ft | 372 kts | 249° |
| 2026-05-08 06:48 | 33.74974 | -95.32915 | 32201 ft | 371 kts | 249° |
| 2026-05-08 06:48 | 33.74046 | -95.35803 | 31553 ft | 369 kts | 249° |
| 2026-05-08 06:49 | 33.73131 | -95.38639 | 30924 ft | 367 kts | 249° |
| 2026-05-08 06:49 | 33.72208 | -95.41497 | 30302 ft | 366 kts | 249° |
| 2026-05-08 06:49 | 33.71290 | -95.44342 | 29603 ft | 364 kts | 249° |
| 2026-05-08 06:49 | 33.70375 | -95.47173 | 28918 ft | 362 kts | 249° |
| 2026-05-08 06:50 | 33.69465 | -95.49987 | 28295 ft | 359 kts | 249° |
| 2026-05-08 06:50 | 33.69001 | -95.51420 | 27968 ft | 358 kts | 249° |
| 2026-05-08 06:50 | 33.68100 | -95.54198 | 27377 ft | 356 kts | 249° |
| 2026-05-08 06:50 | 33.67202 | -95.56964 | 26785 ft | 354 kts | 250° |
| 2026-05-08 06:51 | 33.66306 | -95.59719 | 26197 ft | 353 kts | 250° |
| 2026-05-08 06:51 | 33.65413 | -95.62467 | 25625 ft | 353 kts | 250° |
| 2026-05-08 06:51 | 33.64531 | -95.65182 | 25052 ft | 353 kts | 250° |
| 2026-05-08 06:51 | 33.63641 | -95.67911 | 24798 ft | 347 kts | 250° |
| 2026-05-08 06:52 | 33.62761 | -95.70611 | 24530 ft | 348 kts | 250° |
| 2026-05-08 06:52 | 33.61859 | -95.73380 | 23996 ft | 360 kts | 250° |
| 2026-05-08 06:52 | 33.60950 | -95.76167 | 23421 ft | 365 kts | 250° |
| 2026-05-08 06:52 | 33.60021 | -95.79011 | 22806 ft | 365 kts | 250° |
| 2026-05-08 06:53 | 33.59096 | -95.81838 | 22237 ft | 363 kts | 250° |
| 2026-05-08 06:53 | 33.58175 | -95.84654 | 21691 ft | 360 kts | 250° |
| 2026-05-08 06:53 | 33.57271 | -95.87414 | 21164 ft | 358 kts | 250° |
| 2026-05-08 06:53 | 33.56361 | -95.90190 | 20640 ft | 356 kts | 250° |
| 2026-05-08 06:54 | 33.55454 | -95.92957 | 20123 ft | 354 kts | 250° |
| 2026-05-08 06:54 | 33.54857 | -95.94774 | 19766 ft | 353 kts | 249° |
| 2026-05-08 06:54 | 33.53667 | -95.98398 | 19085 ft | 351 kts | 249° |
| 2026-05-08 06:54 | 33.52772 | -96.01123 | 18578 ft | 350 kts | 249° |
| 2026-05-08 06:55 | 33.51882 | -96.03827 | 18007 ft | 349 kts | 249° |
| 2026-05-08 06:55 | 33.50991 | -96.06530 | 17464 ft | 347 kts | 249° |
| 2026-05-08 06:55 | 33.50406 | -96.08304 | 17128 ft | 345 kts | 249° |
| 2026-05-08 06:55 | 33.49525 | -96.10976 | 16615 ft | 343 kts | 249° |
| 2026-05-08 06:56 | 33.48370 | -96.14477 | 15932 ft | 340 kts | 249° |
| 2026-05-08 06:56 | 33.47502 | -96.17104 | 15432 ft | 338 kts | 249° |
| 2026-05-08 06:56 | 33.46916 | -96.18877 | 15100 ft | 337 kts | 249° |
| 2026-05-08 06:56 | 33.46072 | -96.21427 | 14850 ft | 328 kts | 249° |
| 2026-05-08 06:57 | 33.45243 | -96.23929 | 14680 ft | 317 kts | 249° |
| 2026-05-08 06:57 | 33.44324 | -96.26277 | 14430 ft | 308 kts | 237° |
| 2026-05-08 06:57 | 33.42953 | -96.28224 | 14048 ft | 303 kts | 230° |
| 2026-05-08 06:57 | 33.41561 | -96.30070 | 13624 ft | 301 kts | 231° |
| 2026-05-08 06:58 | 33.40177 | -96.31949 | 13217 ft | 299 kts | 231° |
| 2026-05-08 06:58 | 33.38806 | -96.33825 | 12808 ft | 297 kts | 231° |
| 2026-05-08 06:58 | 33.37454 | -96.35682 | 12420 ft | 295 kts | 231° |
| 2026-05-08 06:58 | 33.36131 | -96.37502 | 12042 ft | 292 kts | 231° |
| 2026-05-08 06:59 | 33.34818 | -96.39307 | 11786 ft | 285 kts | 231° |
| 2026-05-08 06:59 | 33.33477 | -96.41152 | 11312 ft | 306 kts | 231° |
| 2026-05-08 06:59 | 33.32266 | -96.43330 | 11145 ft | 328 kts | 249° |
| 2026-05-08 06:59 | 33.31562 | -96.45998 | 11048 ft | 340 kts | 254° |
| 2026-05-08 07:00 | 33.30868 | -96.48672 | 11015 ft | 343 kts | 252° |
| 2026-05-08 07:00 | 33.30111 | -96.51387 | 11012 ft | 345 kts | 252° |
| 2026-05-08 07:00 | 33.29344 | -96.54106 | 11008 ft | 345 kts | 251° |
| 2026-05-08 07:00 | 33.28646 | -96.56842 | 11001 ft | 342 kts | 258° |
| 2026-05-08 07:01 | 33.28418 | -96.59685 | 11017 ft | 345 kts | 267° |
| 2026-05-08 07:01 | 33.28345 | -96.62511 | 10894 ft | 344 kts | 267° |
| 2026-05-08 07:01 | 33.28257 | -96.65361 | 10586 ft | 340 kts | 267° |
| 2026-05-08 07:01 | 33.28155 | -96.68128 | 10483 ft | 325 kts | 266° |
| 2026-05-08 07:02 | 33.28045 | -96.70766 | 10381 ft | 310 kts | 266° |
| 2026-05-08 07:02 | 33.27934 | -96.73279 | 10291 ft | 296 kts | 266° |
| 2026-05-08 07:02 | 33.27825 | -96.75654 | 10190 ft | 283 kts | 266° |
| 2026-05-08 07:02 | 33.27718 | -96.77950 | 10080 ft | 271 kts | 266° |
| 2026-05-08 07:03 | 33.27614 | -96.80166 | 9890 ft | 262 kts | 266° |
| 2026-05-08 07:03 | 33.27511 | -96.82328 | 9553 ft | 259 kts | 266° |
| 2026-05-08 07:03 | 33.27409 | -96.84472 | 9118 ft | 259 kts | 266° |
| 2026-05-08 07:03 | 33.27314 | -96.86601 | 8681 ft | 259 kts | 266° |
| 2026-05-08 07:04 | 33.27222 | -96.88757 | 8282 ft | 259 kts | 266° |
| 2026-05-08 07:04 | 33.27131 | -96.90900 | 7901 ft | 257 kts | 266° |
| 2026-05-08 07:04 | 33.27042 | -96.93005 | 7524 ft | 255 kts | 266° |
| 2026-05-08 07:04 | 33.26933 | -96.95103 | 7112 ft | 249 kts | 262° |
| 2026-05-08 07:05 | 33.26283 | -96.97029 | 6495 ft | 255 kts | 234° |
| 2026-05-08 07:05 | 33.25082 | -96.98602 | 5973 ft | 257 kts | 226° |
| 2026-05-08 07:05 | 33.23813 | -97.00075 | 5524 ft | 256 kts | 225° |
| 2026-05-08 07:05 | 33.22537 | -97.01552 | 5134 ft | 255 kts | 225° |
| 2026-05-08 07:06 | 33.21137 | -97.02879 | 5004 ft | 259 kts | 206° |
| 2026-05-08 07:06 | 33.19385 | -97.03313 | 5005 ft | 260 kts | 179° |
| 2026-05-08 07:06 | 33.17604 | -97.02932 | 4999 ft | 260 kts | 164° |
| 2026-05-08 07:06 | 33.15914 | -97.02247 | 5002 ft | 260 kts | 161° |
| 2026-05-08 07:07 | 33.14288 | -97.01319 | 4997 ft | 257 kts | 153° |
| 2026-05-08 07:07 | 33.12625 | -97.00717 | 4940 ft | 246 kts | 178° |
| 2026-05-08 07:07 | 33.10942 | -97.00826 | 4603 ft | 238 kts | 185° |
| 2026-05-08 07:07 | 33.09327 | -97.00884 | 4302 ft | 233 kts | 180° |
| 2026-05-08 07:08 | 33.07721 | -97.00884 | 3990 ft | 228 kts | 180° |
| 2026-05-08 07:08 | 33.06146 | -97.00886 | 3702 ft | 223 kts | 180° |
| 2026-05-08 07:08 | 33.04633 | -97.00893 | 3391 ft | 210 kts | 180° |
| 2026-05-08 07:08 | 33.03232 | -97.00902 | 3127 ft | 193 kts | 180° |
| 2026-05-08 07:09 | 33.01950 | -97.00910 | 2923 ft | 181 kts | 180° |
| 2026-05-08 07:09 | 33.00738 | -97.00917 | 2665 ft | 166 kts | 180° |
| 2026-05-08 07:09 | 32.99638 | -97.00923 | 2456 ft | 151 kts | 180° |
| 2026-05-08 07:09 | 32.98609 | -97.00929 | 2282 ft | 143 kts | 179° |
| 2026-05-08 07:10 | 32.97620 | -97.00934 | 2076 ft | 141 kts | 180° |
| 2026-05-08 07:10 | 32.96659 | -97.00940 | 1888 ft | 138 kts | 180° |
| 2026-05-08 07:10 | 32.95706 | -97.00946 | 1704 ft | 136 kts | 178° |
| 2026-05-08 07:10 | 32.94767 | -97.00961 | 1513 ft | 135 kts | 179° |
| 2026-05-08 07:11 | 32.93803 | -97.00970 | 1373 ft | 143 kts | 179° |
| 2026-05-08 07:11 | 32.92803 | -97.00969 | 1162 ft | 144 kts | 178° |
| 2026-05-08 07:11 | 32.91798 | -97.00969 | 940 ft | 144 kts | 180° |
| 2026-05-08 07:11 | 32.90789 | -97.00973 | 762 ft | 146 kts | 180° |
| 2026-05-08 07:12 | 32.89783 | -97.00979 | 572 ft | 142 kts | 180° |
| 2026-05-08 07:12 | 32.88873 | -97.00983 | 566 ft | 108 kts | 180° |
| 2026-05-08 07:12 | 32.88314 | -97.00985 | 573 ft | 55 kts | 180° |
| 2026-05-08 07:12 | 32.88069 | -97.01025 | 577 ft | 30 kts | 201° |
| 2026-05-08 07:13 | 32.87971 | -97.01093 | 580 ft | 12 kts | 228° |
| 2026-05-08 07:13 | 32.88004 | -97.01166 | 582 ft | 14 kts | 349° |
| 2026-05-08 07:13 | 32.88142 | -97.01165 | 577 ft | 24 kts | 0° |
| 2026-05-08 07:13 | 32.88311 | -97.01165 | 576 ft | 24 kts | 360° |
| 2026-05-08 07:14 | 32.88486 | -97.01165 | 572 ft | 27 kts | 0° |
| 2026-05-08 07:14 | 32.88688 | -97.01162 | 568 ft | 30 kts | 0° |
| 2026-05-08 07:14 | 32.88893 | -97.01162 | 563 ft | 30 kts | 0° |
| 2026-05-08 07:14 | 32.89102 | -97.01160 | 559 ft | 30 kts | 0° |
| 2026-05-08 07:15 | 32.89310 | -97.01159 | 550 ft | 30 kts | 0° |
| 2026-05-08 07:15 | 32.89518 | -97.01158 | 546 ft | 30 kts | 0° |
| 2026-05-08 07:15 | 32.89715 | -97.01157 | 541 ft | 23 kts | 0° |
| 2026-05-08 07:15 | 32.89873 | -97.01197 | 537 ft | 24 kts | 327° |
| 2026-05-08 07:16 | 32.90014 | -97.01309 | 538 ft | 25 kts | 326° |
| 2026-05-08 07:16 | 32.90156 | -97.01423 | 542 ft | 25 kts | 326° |
| 2026-05-08 07:16 | 32.90299 | -97.01536 | 546 ft | 25 kts | 327° |
| 2026-05-08 07:16 | 32.90440 | -97.01646 | 549 ft | 25 kts | 324° |
| 2026-05-08 07:17 | 32.90566 | -97.01785 | 560 ft | 25 kts | 315° |
| 2026-05-08 07:17 | 32.90687 | -97.01928 | 570 ft | 25 kts | 315° |
| 2026-05-08 07:17 | 32.90810 | -97.02071 | 572 ft | 25 kts | 316° |
| 2026-05-08 07:17 | 32.90895 | -97.02195 | 577 ft | 15 kts | 284° |
| 2026-05-08 07:18 | 32.90953 | -97.02275 | 573 ft | 15 kts | 5° |
| 2026-05-08 07:18 | 32.91047 | -97.02197 | 571 ft | 19 kts | 43° |
| 2026-05-08 07:18 | 32.91143 | -97.02085 | 569 ft | 19 kts | 45° |
| 2026-05-08 07:18 | 32.91234 | -97.01977 | 574 ft | 12 kts | 46° |
| 2026-05-08 07:19 | 32.91290 | -97.01912 | 576 ft | 11 kts | 30° |
| 2026-05-08 07:19 | 32.91355 | -97.01882 | 576 ft | 10 kts | 45° |
| 2026-05-08 07:19 | 32.91379 | -97.01852 | 575 ft | 0 kts | 46° |
| 2026-05-08 07:19 | 32.91380 | -97.01851 | 577 ft | 0 kts | 46° |